CheckWX is a tool to help pilots better visualize weather data.  It is not intended as a substitute for an official pre-flight weather briefing.

21:03:47 UTC

KSCK METAR
Stockton Metropolitan Airport
Stockton, California, USA
Current

1 hour ago

KSCK 231955Z VRB03KT 10SM CLR 29/09 A2998 RMK AO2 SLP151 T02890094
Observed
Apr-23 @ 19:55 UTC
Wind
  • Variable at 3 KTS
Visibility
10 SM
Flight Rules
VFR
Cloud Levels
  • Clear skies
Temperature
29°C / 84°F
Dewpoint
C / 48°F
Humidity
29%
Altimeter
29.98" Hg
Pressure
1015.22 hPa
Previous

2 hours ago

KSCK 231855Z VRB03KT 10SM CLR 27/09 A3000 RMK AO2 SLP157 T02670094
Observed
Apr-23 @ 18:55 UTC
Wind
  • Variable at 3 KTS
Visibility
10 SM
Flight Rules
VFR
Cloud Levels
  • Clear skies
Temperature
27°C / 81°F
Dewpoint
C / 48°F
Humidity
32%
Altimeter
30" Hg
Pressure
1015.92 hPa
Previous

3 hours ago

KSCK 231755Z 00000KT 10SM CLR 24/10 A3000 RMK AO2 SLP159 60000 T02440100 10250 20089 58000
Observed
Apr-23 @ 17:55 UTC
Visibility
10 SM
Flight Rules
VFR
Cloud Levels
  • Clear skies
Temperature
24°C / 75°F
Dewpoint
10°C / 50°F
Humidity
41%
Altimeter
30" Hg
Pressure
1015.92 hPa